Terminal Aerodrome Forecast
Issued by NWS Albuquerque, NM

Home | Current Version | Previous Version | Text Only | Print | Product List | Glossary On
Versions: 1 2 3 4 5 6 7 8 9 10 11 12
000
FTUS45 KABQ 191121
TAFABQ
TAF
KABQ 191121Z 1912/2012 13006KT P6SM BKN120
     FM191800 20009KT P6SM SCT100
     FM200000 VRB15G25KT P6SM VCTS BKN090CB
     FM200300 10015G25KT P6SM BKN100
     FM200600 12010KT P6SM VCSH OVC090=

USA.gov is the U.S. government's official web portal to all federal, state and local government web resources and services.